createdAt,value
2022-09-30T00:01:17.610Z,16.43
2022-09-30T00:03:49.586Z,16.17
2022-09-30T00:06:20.714Z,16.43
2022-09-30T00:08:47.556Z,16.83
2022-09-30T00:11:19.022Z,17.03
2022-09-30T00:13:50.538Z,16.13
2022-09-30T00:16:18.063Z,15.00
2022-09-30T00:18:45.006Z,16.37
2022-09-30T00:21:12.061Z,16.10
2022-09-30T00:23:43.356Z,15.60
2022-09-30T00:26:20.591Z,14.83
2022-09-30T00:28:52.438Z,15.97
2022-09-30T00:31:19.751Z,15.70
2022-09-30T00:34:06.723Z,15.73
2022-09-30T00:36:34.360Z,15.23
2022-09-30T00:39:01.146Z,16.50
2022-09-30T00:41:30.177Z,15.73
2022-09-30T00:43:56.860Z,15.03
2022-09-30T00:46:26.402Z,14.53
2022-09-30T00:48:54.140Z,16.07
2022-09-30T00:51:31.416Z,16.57
2022-09-30T00:54:01.092Z,15.77
2022-09-30T00:56:37.531Z,15.97
2022-09-30T00:59:12.301Z,15.23
2022-09-30T01:01:39.862Z,15.37
2022-09-30T01:04:16.188Z,15.40
2022-09-30T01:06:46.313Z,16.73
2022-09-30T01:09:17.711Z,15.63
2022-09-30T01:11:47.164Z,14.97
2022-09-30T01:14:19.149Z,15.63
2022-09-30T01:16:45.814Z,16.20
2022-09-30T01:19:24.816Z,15.67
2022-09-30T01:21:57.729Z,15.60
2022-09-30T01:24:46.557Z,15.60
2022-09-30T01:27:35.108Z,15.90
2022-09-30T01:30:12.672Z,17.27
2022-09-30T01:33:04.042Z,15.87
2022-09-30T01:35:57.275Z,16.80
2022-09-30T01:38:29.403Z,17.40
2022-09-30T01:41:28.396Z,16.83
2022-09-30T01:44:26.067Z,17.83
2022-09-30T01:47:00.384Z,19.77
2022-09-30T01:49:38.819Z,18.47
2022-09-30T01:52:13.446Z,19.00
2022-09-30T01:54:43.893Z,18.97
2022-09-30T01:57:19.272Z,18.63
2022-09-30T02:00:22.948Z,18.30
2022-09-30T02:03:09.442Z,18.40
2022-09-30T02:05:55.897Z,18.77
2022-09-30T02:09:15.738Z,18.00
2022-09-30T02:11:44.974Z,19.43
2022-09-30T02:14:26.097Z,19.50
2022-09-30T02:17:02.471Z,19.53
2022-09-30T02:19:43.215Z,20.03
2022-09-30T02:22:17.436Z,22.00
2022-09-30T02:24:46.073Z,24.10
2022-09-30T02:27:42.314Z,22.77
2022-09-30T02:30:09.831Z,20.90
2022-09-30T02:32:57.422Z,21.97
2022-09-30T02:35:34.258Z,21.63
2022-09-30T02:38:05.601Z,20.27
2022-09-30T02:40:52.730Z,21.13
2022-09-30T02:43:20.663Z,21.53
2022-09-30T02:46:06.933Z,21.93
2022-09-30T02:48:55.997Z,22.57
2022-09-30T02:51:24.455Z,22.37
2022-09-30T02:54:22.613Z,22.80
2022-09-30T02:56:55.079Z,22.10
2022-09-30T02:59:26.981Z,23.37
2022-09-30T03:01:56.377Z,23.93
2022-09-30T03:04:25.077Z,24.50
2022-09-30T03:06:51.763Z,24.43
2022-09-30T03:09:18.639Z,25.00
2022-09-30T03:11:45.431Z,23.43
2022-09-30T03:14:27.832Z,23.17
2022-09-30T03:17:24.612Z,23.27
2022-09-30T03:20:14.729Z,24.13
2022-09-30T03:22:51.312Z,23.53
2022-09-30T03:25:23.792Z,24.80
2022-09-30T03:28:02.479Z,24.13
2022-09-30T03:30:29.275Z,23.90
2022-09-30T03:32:55.945Z,23.43
2022-09-30T03:35:38.912Z,23.10
2022-09-30T03:38:27.056Z,24.17
2022-09-30T03:41:08.499Z,24.10
2022-09-30T03:43:36.625Z,23.73
2022-09-30T03:46:03.343Z,23.27
2022-09-30T03:48:30.147Z,24.13
2022-09-30T03:50:59.096Z,23.50
2022-09-30T03:53:28.359Z,23.00
2022-09-30T03:55:55.625Z,22.87
2022-09-30T03:58:23.500Z,22.30
2022-09-30T04:00:51.459Z,23.80
2022-09-30T04:03:19.747Z,24.13
2022-09-30T04:05:48.884Z,24.13
2022-09-30T04:08:18.015Z,22.80
2022-09-30T04:10:44.901Z,24.10
2022-09-30T04:13:14.065Z,24.70
2022-09-30T04:15:41.669Z,22.93
2022-09-30T04:18:08.381Z,23.53
2022-09-30T04:20:35.173Z,24.07
2022-09-30T04:23:04.051Z,23.90
2022-09-30T04:25:30.813Z,23.50
2022-09-30T04:27:57.735Z,24.00
2022-09-30T04:30:27.167Z,23.73
2022-09-30T04:32:54.049Z,23.03
2022-09-30T04:35:20.802Z,23.60
2022-09-30T04:37:47.669Z,24.23
2022-09-30T04:40:17.788Z,23.77
2022-09-30T04:42:44.603Z,25.37
2022-09-30T04:45:12.177Z,23.50
2022-09-30T04:47:39.417Z,23.83
2022-09-30T04:50:08.773Z,24.27
2022-09-30T04:52:35.529Z,23.90
2022-09-30T04:55:02.221Z,23.60
2022-09-30T04:57:29.001Z,24.47
2022-09-30T04:59:57.920Z,24.30
2022-09-30T05:02:26.860Z,24.77
2022-09-30T05:04:55.803Z,24.77
2022-09-30T05:07:22.616Z,24.10
2022-09-30T05:09:49.316Z,24.60
2022-09-30T05:12:16.183Z,28.23
2022-09-30T05:14:42.894Z,25.57
2022-09-30T05:17:11.871Z,24.70
2022-09-30T05:19:38.581Z,25.47
2022-09-30T05:22:07.531Z,25.27
2022-09-30T05:24:34.210Z,24.93
2022-09-30T05:27:05.815Z,25.73
2022-09-30T05:29:32.690Z,24.93
2022-09-30T05:31:59.729Z,25.27
2022-09-30T05:34:26.587Z,24.63
2022-09-30T05:36:53.485Z,25.97
2022-09-30T05:39:20.242Z,25.80
2022-09-30T05:41:49.115Z,25.03
2022-09-30T05:44:19.359Z,25.13
2022-09-30T05:46:48.271Z,27.63
2022-09-30T05:49:15.047Z,27.80
2022-09-30T05:51:44.394Z,27.43
2022-09-30T05:54:14.135Z,28.10
2022-09-30T05:56:41.011Z,27.83
2022-09-30T05:59:09.872Z,27.07
2022-09-30T06:01:36.974Z,27.67
2022-09-30T06:04:06.342Z,28.93
2022-09-30T06:06:33.035Z,31.93
2022-09-30T06:09:00.352Z,30.33
2022-09-30T06:11:27.155Z,29.67
2022-09-30T06:13:54.287Z,30.13
2022-09-30T06:16:24.077Z,29.80
2022-09-30T06:18:50.939Z,29.33
2022-09-30T06:21:21.009Z,28.53
2022-09-30T06:23:50.305Z,27.27
2022-09-30T06:26:19.631Z,28.57
2022-09-30T06:28:46.435Z,28.73
2022-09-30T06:31:13.275Z,28.63
2022-09-30T06:33:40.090Z,36.17
2022-09-30T06:36:07.241Z,30.07
2022-09-30T06:38:35.929Z,32.03
2022-09-30T06:41:02.684Z,31.37
2022-09-30T06:43:41.483Z,30.70
2022-09-30T06:46:24.420Z,32.43
2022-09-30T06:49:10.289Z,30.87
2022-09-30T06:51:44.556Z,31.93
2022-09-30T06:54:11.298Z,32.60
2022-09-30T06:56:40.544Z,31.67
2022-09-30T06:59:09.458Z,30.20
2022-09-30T07:01:36.224Z,31.63
2022-09-30T07:04:08.155Z,33.83
2022-09-30T07:06:34.911Z,31.90
2022-09-30T07:09:04.512Z,32.00
2022-09-30T07:11:31.264Z,31.60
2022-09-30T07:13:58.006Z,31.03
2022-09-30T07:16:27.308Z,32.33
2022-09-30T07:18:54.394Z,30.77
2022-09-30T07:21:21.366Z,30.27
2022-09-30T07:23:48.348Z,30.60
2022-09-30T07:26:19.709Z,30.67
2022-09-30T07:28:46.532Z,32.43
2022-09-30T07:31:35.424Z,29.13
2022-09-30T07:34:07.783Z,31.53
2022-09-30T07:36:39.531Z,29.43
2022-09-30T07:39:07.659Z,30.33
2022-09-30T07:41:35.749Z,30.43
2022-09-30T07:44:03.032Z,31.00
2022-09-30T07:46:33.419Z,30.27
2022-09-30T07:49:02.222Z,31.43
2022-09-30T07:51:31.375Z,30.33
2022-09-30T07:54:06.093Z,30.00
2022-09-30T07:56:51.139Z,27.90
2022-09-30T07:59:20.121Z,27.30
2022-09-30T08:01:49.321Z,27.00
2022-09-30T08:04:16.368Z,27.63
2022-09-30T08:06:45.638Z,27.90
2022-09-30T08:09:15.673Z,25.37
2022-09-30T08:11:43.060Z,25.17
2022-09-30T08:14:19.536Z,25.47
2022-09-30T08:16:51.664Z,23.73
2022-09-30T08:19:27.699Z,25.10
2022-09-30T08:21:54.718Z,24.37
2022-09-30T08:24:22.145Z,24.53
2022-09-30T08:26:49.148Z,23.67
2022-09-30T08:29:20.561Z,24.10
2022-09-30T08:31:52.401Z,24.33
2022-09-30T08:34:19.348Z,24.07
2022-09-30T08:36:46.738Z,23.47
2022-09-30T08:39:16.240Z,26.10
2022-09-30T08:41:42.868Z,24.37
2022-09-30T08:44:26.771Z,25.40
2022-09-30T08:47:12.381Z,23.53
2022-09-30T08:50:04.231Z,23.57
2022-09-30T08:52:49.120Z,24.57
2022-09-30T08:55:25.251Z,23.83
2022-09-30T08:57:53.016Z,23.73
2022-09-30T09:00:25.011Z,23.63
2022-09-30T09:02:55.912Z,22.27
2022-09-30T09:05:25.805Z,23.67
2022-09-30T09:07:58.075Z,22.50
2022-09-30T09:10:34.365Z,23.93
2022-09-30T09:13:14.209Z,22.60
2022-09-30T09:15:45.948Z,22.67
2022-09-30T09:18:35.752Z,21.47
2022-09-30T09:21:36.667Z,23.33
2022-09-30T09:24:03.527Z,21.90
2022-09-30T09:26:32.906Z,23.23
2022-09-30T09:29:12.830Z,23.20
2022-09-30T09:31:39.583Z,21.80
2022-09-30T09:34:11.386Z,22.37
2022-09-30T09:36:56.579Z,23.60
2022-09-30T09:39:54.114Z,20.70
2022-09-30T09:42:34.860Z,19.03
2022-09-30T09:45:13.540Z,18.83
2022-09-30T09:47:40.659Z,18.03
2022-09-30T09:50:15.018Z,17.77
2022-09-30T09:52:47.648Z,16.87
2022-09-30T09:55:17.702Z,17.83
2022-09-30T09:57:44.641Z,18.33
2022-09-30T10:00:31.387Z,18.43
2022-09-30T10:03:04.135Z,16.83
2022-09-30T10:05:32.527Z,18.40
2022-09-30T10:08:21.025Z,18.90
2022-09-30T10:10:51.915Z,19.50
2022-09-30T10:13:45.568Z,19.17
2022-09-30T10:16:31.219Z,18.37
2022-09-30T10:18:58.815Z,21.80
2022-09-30T10:21:31.695Z,19.87
2022-09-30T10:23:59.880Z,19.57
2022-09-30T10:26:29.943Z,19.53
2022-09-30T10:28:57.529Z,17.33
2022-09-30T10:31:36.681Z,18.27
2022-09-30T10:34:21.500Z,16.70
2022-09-30T10:36:50.720Z,16.20
2022-09-30T10:39:24.043Z,14.80
2022-09-30T10:41:51.889Z,15.20
2022-09-30T10:44:22.615Z,14.67
2022-09-30T10:46:51.268Z,14.30
2022-09-30T10:49:28.378Z,13.67
2022-09-30T10:51:56.700Z,13.13
2022-09-30T10:54:52.287Z,12.37
2022-09-30T10:57:23.682Z,11.90
2022-09-30T10:59:52.483Z,11.13
2022-09-30T11:02:58.870Z,10.93
2022-09-30T11:05:29.527Z,9.83
2022-09-30T11:08:15.629Z,10.10
2022-09-30T11:10:51.456Z,9.43
2022-09-30T11:13:32.119Z,9.63
2022-09-30T11:16:09.732Z,9.63
2022-09-30T11:18:47.568Z,8.53
2022-09-30T11:21:44.969Z,7.67
2022-09-30T11:24:15.389Z,8.37
2022-09-30T11:27:08.758Z,7.83
2022-09-30T11:29:47.644Z,8.03
2022-09-30T11:32:23.284Z,8.07
2022-09-30T11:35:05.062Z,7.63
2022-09-30T11:37:34.828Z,7.00
2022-09-30T11:40:13.648Z,7.60
2022-09-30T11:42:46.460Z,8.60
2022-09-30T11:45:35.824Z,7.47
2022-09-30T11:48:42.434Z,8.07
2022-09-30T11:51:18.501Z,8.43
2022-09-30T11:54:04.455Z,7.90
2022-09-30T11:56:43.096Z,8.77
2022-09-30T11:59:23.441Z,7.53
2022-09-30T12:01:51.166Z,7.83
2022-09-30T12:04:37.329Z,7.70
2022-09-30T12:07:21.779Z,7.13
2022-09-30T12:09:56.514Z,7.37
2022-09-30T12:12:25.788Z,7.27
2022-09-30T12:15:03.431Z,6.53
2022-09-30T12:17:39.954Z,7.37
2022-09-30T12:20:22.072Z,7.13
2022-09-30T12:22:52.162Z,6.73
2022-09-30T12:25:21.271Z,6.43
2022-09-30T12:27:57.612Z,6.93
2022-09-30T12:30:24.466Z,6.83
2022-09-30T12:33:10.887Z,6.30
2022-09-30T12:35:46.438Z,6.53
2022-09-30T12:38:19.023Z,6.57
2022-09-30T12:40:51.568Z,7.10
2022-09-30T12:43:38.809Z,7.10
2022-09-30T12:46:45.797Z,6.23
2022-09-30T12:49:15.025Z,6.63
2022-09-30T12:51:45.148Z,6.83
2022-09-30T12:54:17.965Z,6.73
2022-09-30T12:56:48.363Z,6.67
2022-09-30T12:59:15.098Z,6.50
2022-09-30T13:01:42.216Z,6.80
2022-09-30T13:04:08.865Z,6.10
2022-09-30T13:06:47.805Z,6.73
2022-09-30T13:09:17.343Z,6.30
2022-09-30T13:11:56.819Z,7.07
2022-09-30T13:14:37.889Z,5.90
2022-09-30T13:17:26.059Z,6.53
2022-09-30T13:19:53.971Z,6.13
2022-09-30T13:22:20.615Z,5.73
2022-09-30T13:25:00.619Z,12.40
2022-09-30T13:27:42.600Z,4.50
2022-09-30T13:30:15.615Z,4.70
2022-09-30T13:33:11.380Z,4.70
2022-09-30T13:35:41.783Z,4.20
2022-09-30T13:38:14.209Z,3.50
2022-09-30T13:41:01.852Z,3.30
2022-09-30T13:43:47.263Z,3.37
2022-09-30T13:46:18.145Z,3.70
2022-09-30T13:48:57.019Z,4.10
2022-09-30T13:51:27.700Z,4.50
2022-09-30T13:53:58.509Z,4.27
2022-09-30T13:56:30.574Z,4.30
2022-09-30T13:59:21.645Z,4.67
2022-09-30T14:02:05.691Z,3.53
2022-09-30T14:05:07.597Z,4.57
2022-09-30T14:07:52.517Z,4.00
2022-09-30T14:10:36.968Z,4.40
2022-09-30T14:13:09.700Z,5.10
2022-09-30T14:15:57.301Z,4.87
2022-09-30T14:18:47.485Z,5.27
2022-09-30T14:21:31.813Z,5.50
2022-09-30T14:24:09.846Z,5.47
2022-09-30T14:26:52.947Z,5.73
2022-09-30T14:29:40.522Z,6.30
2022-09-30T14:32:18.885Z,5.90
2022-09-30T14:34:52.153Z,6.50
2022-09-30T14:37:28.044Z,6.70
2022-09-30T14:39:54.874Z,6.63
2022-09-30T14:42:30.493Z,6.00
2022-09-30T14:45:04.798Z,6.73
2022-09-30T14:47:39.009Z,6.40
2022-09-30T14:50:16.350Z,6.70
2022-09-30T14:52:45.202Z,5.77
2022-09-30T14:55:23.554Z,5.93
2022-09-30T14:57:50.259Z,5.90
2022-09-30T15:00:28.284Z,6.03
2022-09-30T15:02:58.240Z,5.57
2022-09-30T15:05:25.706Z,6.50
2022-09-30T15:07:53.378Z,6.30
2022-09-30T15:10:26.780Z,6.17
2022-09-30T15:12:55.197Z,6.47
2022-09-30T15:15:28.787Z,6.40
2022-09-30T15:17:56.188Z,6.60
2022-09-30T15:20:28.031Z,6.30
2022-09-30T15:23:03.271Z,6.47
2022-09-30T15:25:30.546Z,6.97
2022-09-30T15:27:57.528Z,7.73
2022-09-30T15:30:29.297Z,6.90
2022-09-30T15:33:03.611Z,7.27
2022-09-30T15:35:35.404Z,7.07
2022-09-30T15:38:21.745Z,7.20
2022-09-30T15:41:10.027Z,6.90
2022-09-30T15:43:51.679Z,7.20
2022-09-30T15:46:28.848Z,7.13
2022-09-30T15:49:07.193Z,7.13
2022-09-30T15:51:38.086Z,7.50
2022-09-30T15:54:36.247Z,8.03
2022-09-30T15:57:06.099Z,8.07
2022-09-30T16:00:02.129Z,8.27
2022-09-30T16:02:29.531Z,8.23
2022-09-30T16:04:56.363Z,8.77
2022-09-30T16:07:29.065Z,9.13
2022-09-30T16:09:57.031Z,9.03
2022-09-30T16:12:25.957Z,20.77
2022-09-30T16:14:54.258Z,11.27
2022-09-30T16:17:32.586Z,9.43
2022-09-30T16:20:05.799Z,9.03
2022-09-30T16:22:35.487Z,8.43
2022-09-30T16:25:31.667Z,9.10
2022-09-30T16:27:59.212Z,9.00
2022-09-30T16:30:26.332Z,10.37
2022-09-30T16:32:58.215Z,9.17
2022-09-30T16:35:26.770Z,9.03
2022-09-30T16:38:04.572Z,9.40
2022-09-30T16:40:32.072Z,9.37
2022-09-30T16:42:59.132Z,9.13
2022-09-30T16:45:26.874Z,9.23
2022-09-30T16:47:53.995Z,9.40
2022-09-30T16:50:23.468Z,9.37
2022-09-30T16:52:50.236Z,9.63
2022-09-30T16:55:17.019Z,9.60
2022-09-30T16:57:48.243Z,9.73
2022-09-30T17:00:18.301Z,9.53
2022-09-30T17:02:46.561Z,9.30
2022-09-30T17:05:18.897Z,9.67
2022-09-30T17:07:49.913Z,9.47
2022-09-30T17:10:21.365Z,10.17
2022-09-30T17:12:49.039Z,11.27
2022-09-30T17:15:16.824Z,11.37
2022-09-30T17:17:43.987Z,11.40
2022-09-30T17:20:13.258Z,11.13
2022-09-30T17:22:39.979Z,10.57
2022-09-30T17:25:07.464Z,10.43
2022-09-30T17:27:36.754Z,11.07
2022-09-30T17:30:04.394Z,11.40
2022-09-30T17:32:31.209Z,12.23
2022-09-30T17:34:57.965Z,12.17
2022-09-30T17:37:29.800Z,11.20
2022-09-30T17:39:58.753Z,10.53
2022-09-30T17:42:44.014Z,10.03
2022-09-30T17:45:10.900Z,9.57
2022-09-30T17:47:39.708Z,9.30
2022-09-30T17:50:06.999Z,9.90
2022-09-30T17:52:34.396Z,9.50
2022-09-30T17:55:01.603Z,10.57
2022-09-30T17:57:28.457Z,9.83
2022-09-30T17:59:57.293Z,10.30
2022-09-30T18:02:25.344Z,9.70
2022-09-30T18:04:54.394Z,10.43
2022-09-30T18:07:22.894Z,10.97
2022-09-30T18:09:51.130Z,12.13
2022-09-30T18:12:20.062Z,12.47
2022-09-30T18:14:49.315Z,12.17
2022-09-30T18:17:16.021Z,12.03
2022-09-30T18:19:42.766Z,12.43
2022-09-30T18:22:10.591Z,12.07
2022-09-30T18:24:57.991Z,11.93
2022-09-30T18:27:26.088Z,12.03
2022-09-30T18:29:55.286Z,11.80
2022-09-30T18:32:21.997Z,12.47
2022-09-30T18:34:48.862Z,12.03
2022-09-30T18:37:15.619Z,12.47
2022-09-30T18:39:42.365Z,12.57
2022-09-30T18:42:09.378Z,11.77
2022-09-30T18:44:37.973Z,11.20
2022-09-30T18:47:05.604Z,13.07
2022-09-30T18:49:32.527Z,11.60
2022-09-30T18:52:03.206Z,11.73
2022-09-30T18:54:30.207Z,12.60
2022-09-30T18:56:56.956Z,11.87
2022-09-30T18:59:24.206Z,11.57
2022-09-30T19:01:51.229Z,12.50
2022-09-30T19:04:20.788Z,11.00
2022-09-30T19:06:47.773Z,12.70
2022-09-30T19:09:16.441Z,11.73
2022-09-30T19:11:44.850Z,11.50
2022-09-30T19:14:12.992Z,11.30
2022-09-30T19:16:40.174Z,11.47
2022-09-30T19:19:10.271Z,11.93
2022-09-30T19:21:40.083Z,12.07
2022-09-30T19:24:09.294Z,11.87
2022-09-30T19:26:37.116Z,12.10
2022-09-30T19:29:05.425Z,12.30
2022-09-30T19:31:37.615Z,12.10
2022-09-30T19:34:07.281Z,12.73
2022-09-30T19:36:50.084Z,12.07
2022-09-30T19:39:18.659Z,11.83
2022-09-30T19:41:47.999Z,13.17
2022-09-30T19:44:20.062Z,13.43
2022-09-30T19:46:50.685Z,12.80
2022-09-30T19:49:17.947Z,12.80
2022-09-30T19:51:44.707Z,13.10
2022-09-30T19:54:13.650Z,12.73
2022-09-30T19:56:40.607Z,13.37
2022-09-30T19:59:07.326Z,12.03
2022-09-30T20:01:37.417Z,12.63
2022-09-30T20:04:05.553Z,13.00
2022-09-30T20:06:34.862Z,12.60
2022-09-30T20:09:03.357Z,13.00
2022-09-30T20:11:35.976Z,13.23
2022-09-30T20:14:23.200Z,13.27
2022-09-30T20:16:49.981Z,12.40
2022-09-30T20:19:17.259Z,13.60
2022-09-30T20:21:44.438Z,13.47
2022-09-30T20:24:12.384Z,14.43
2022-09-30T20:26:39.517Z,13.57
2022-09-30T20:29:08.919Z,12.63
2022-09-30T20:31:38.751Z,13.60
2022-09-30T20:34:05.500Z,13.70
2022-09-30T20:36:32.370Z,13.37
2022-09-30T20:39:02.612Z,14.63
2022-09-30T20:41:35.707Z,13.73
2022-09-30T20:44:07.509Z,15.00
2022-09-30T20:46:37.333Z,15.70
2022-09-30T20:49:06.297Z,15.93
2022-09-30T20:51:33.433Z,15.03
2022-09-30T20:54:00.455Z,14.70
2022-09-30T20:56:39.330Z,15.53
2022-09-30T20:59:16.631Z,16.63
2022-09-30T21:01:43.689Z,16.03
2022-09-30T21:04:12.843Z,17.77
2022-09-30T21:06:39.720Z,16.83
2022-09-30T21:09:11.037Z,15.67
2022-09-30T21:11:40.996Z,16.60
2022-09-30T21:14:07.954Z,16.47
2022-09-30T21:16:34.742Z,17.07
2022-09-30T21:19:01.536Z,16.43
2022-09-30T21:21:30.639Z,16.47
2022-09-30T21:23:59.302Z,16.60
2022-09-30T21:26:26.647Z,16.93
2022-09-30T21:28:55.532Z,16.77
2022-09-30T21:31:26.847Z,18.30
2022-09-30T21:33:56.356Z,16.07
2022-09-30T21:36:23.166Z,16.67
2022-09-30T21:38:52.356Z,16.60
2022-09-30T21:41:19.741Z,16.73
2022-09-30T21:43:47.112Z,17.00
2022-09-30T21:46:14.961Z,17.40
2022-09-30T21:48:45.544Z,17.63
2022-09-30T21:51:13.855Z,17.60
2022-09-30T21:53:40.755Z,18.10
2022-09-30T21:56:07.504Z,17.80
2022-09-30T21:58:34.218Z,17.27
2022-09-30T22:01:03.379Z,17.73
2022-09-30T22:03:37.782Z,18.23
2022-09-30T22:06:07.450Z,18.47
2022-09-30T22:08:36.371Z,19.50
2022-09-30T22:11:04.037Z,19.90
2022-09-30T22:13:32.906Z,18.93
2022-09-30T22:16:03.555Z,18.43
2022-09-30T22:18:32.196Z,19.63
2022-09-30T22:21:03.713Z,18.53
2022-09-30T22:23:30.372Z,18.60
2022-09-30T22:25:57.589Z,19.37
2022-09-30T22:28:27.031Z,18.87
2022-09-30T22:30:56.002Z,19.57
2022-09-30T22:33:43.797Z,18.93
2022-09-30T22:36:29.262Z,20.13
2022-09-30T22:38:58.161Z,20.07
2022-09-30T22:41:27.096Z,19.60
2022-09-30T22:43:56.709Z,20.83
2022-09-30T22:46:23.468Z,20.60
2022-09-30T22:48:50.373Z,19.43
2022-09-30T22:51:17.200Z,18.83
2022-09-30T22:53:46.351Z,20.10
2022-09-30T22:56:13.123Z,20.20
2022-09-30T22:58:39.883Z,19.73
2022-09-30T23:01:07.243Z,19.77
2022-09-30T23:03:34.996Z,19.83
2022-09-30T23:06:02.431Z,20.93
2022-09-30T23:08:33.488Z,20.37
2022-09-30T23:11:00.386Z,22.10
2022-09-30T23:13:30.644Z,22.07
2022-09-30T23:16:00.388Z,20.33
2022-09-30T23:18:28.044Z,21.17
2022-09-30T23:20:58.943Z,21.20
2022-09-30T23:23:25.826Z,20.13
2022-09-30T23:26:09.932Z,20.87
2022-09-30T23:28:36.700Z,20.57
2022-09-30T23:31:05.221Z,21.37
2022-09-30T23:33:31.967Z,21.13
2022-09-30T23:36:01.632Z,21.73
2022-09-30T23:38:28.715Z,22.27
2022-09-30T23:41:01.231Z,21.63
2022-09-30T23:43:31.376Z,21.40
2022-09-30T23:46:01.150Z,22.20
2022-09-30T23:48:27.967Z,21.97
2022-09-30T23:50:54.793Z,22.60
2022-09-30T23:53:24.377Z,22.23
2022-09-30T23:56:17.757Z,22.30
2022-09-30T23:58:44.929Z,22.27
